createdAt,value
2022-11-29T00:02:34.731Z,92.28
2022-11-29T00:06:36.175Z,92.65
2022-11-29T00:10:38.625Z,92.42
2022-11-29T00:14:38.176Z,93.29
2022-11-29T00:18:39.684Z,92.92
2022-11-29T00:22:39.215Z,92.91
2022-11-29T00:26:38.918Z,92.17
2022-11-29T00:30:38.522Z,91.31
2022-11-29T00:34:40.297Z,91.72
2022-11-29T00:38:40.318Z,91.35
2022-11-29T00:42:39.847Z,91.25
2022-11-29T00:46:39.680Z,91.77
2022-11-29T00:50:41.372Z,91.61
2022-11-29T00:54:41.037Z,92.48
2022-11-29T00:58:43.043Z,92.81
2022-11-29T01:02:42.666Z,93.18
2022-11-29T01:06:44.378Z,92.32
2022-11-29T01:10:44.656Z,93.08
2022-11-29T01:14:43.483Z,91.19
2022-11-29T01:18:43.593Z,91.56
2022-11-29T01:22:45.009Z,91.88
2022-11-29T01:26:44.581Z,92.41
2022-11-29T01:30:46.182Z,92.53
2022-11-29T01:34:45.998Z,91.92
2022-11-29T01:38:47.924Z,92.97
2022-11-29T01:42:46.923Z,92.77
2022-11-29T01:46:48.505Z,93.04
2022-11-29T01:50:48.000Z,92.83
2022-11-29T01:54:52.859Z,93.51
2022-11-29T01:58:53.083Z,93.41
2022-11-29T02:02:57.450Z,92.98
2022-11-29T02:06:57.034Z,93.93
2022-11-29T02:11:26.967Z,94.15
2022-11-29T02:15:36.135Z,94.31
2022-11-29T02:19:56.937Z,94.30
2022-11-29T02:24:31.228Z,95.35
2022-11-29T02:29:09.463Z,95.71
2022-11-29T02:33:38.537Z,96.12
2022-11-29T02:38:01.498Z,95.83
2022-11-29T02:42:29.439Z,95.15
2022-11-29T02:46:46.270Z,95.67
2022-11-29T02:50:57.169Z,96.17
2022-11-29T02:55:06.372Z,96.11
2022-11-29T02:59:11.458Z,96.00
2022-11-29T03:03:19.431Z,96.31
2022-11-29T03:07:29.257Z,97.26
2022-11-29T03:11:36.430Z,97.60
2022-11-29T03:15:45.892Z,97.69
2022-11-29T03:20:01.636Z,98.19
2022-11-29T03:24:07.211Z,98.95
2022-11-29T03:28:16.369Z,99.57
2022-11-29T03:32:22.816Z,99.63
2022-11-29T03:36:31.531Z,100.00
2022-11-29T03:40:44.158Z,100.00
2022-11-29T03:44:53.046Z,100.00
2022-11-29T03:48:56.536Z,100.00
2022-11-29T03:52:58.717Z,100.00
2022-11-29T03:57:01.367Z,100.00
2022-11-29T04:01:31.275Z,100.00
2022-11-29T04:06:01.104Z,100.00
2022-11-29T04:10:18.257Z,100.00
2022-11-29T04:14:33.008Z,100.00
2022-11-29T04:19:14.017Z,100.00
2022-11-29T04:23:40.500Z,100.00
2022-11-29T04:27:54.045Z,100.00
2022-11-29T04:32:15.322Z,100.00
2022-11-29T04:36:40.410Z,100.00
2022-11-29T04:41:03.408Z,100.00
2022-11-29T04:45:37.934Z,100.00
2022-11-29T04:50:14.645Z,100.00
2022-11-29T04:54:25.272Z,100.00
2022-11-29T04:58:33.269Z,100.00
2022-11-29T05:02:37.553Z,100.00
2022-11-29T05:06:45.569Z,100.00
2022-11-29T05:10:55.415Z,100.00
2022-11-29T05:15:18.375Z,100.00
2022-11-29T05:19:57.699Z,100.00
2022-11-29T05:24:13.760Z,100.00
2022-11-29T05:28:21.253Z,100.00
2022-11-29T05:32:32.355Z,100.00
2022-11-29T05:36:41.837Z,100.00
2022-11-29T05:40:52.829Z,99.55
2022-11-29T05:44:58.720Z,100.00
2022-11-29T05:49:06.850Z,100.00
2022-11-29T05:53:19.721Z,99.69
2022-11-29T05:57:31.075Z,100.00
2022-11-29T06:01:36.881Z,99.31
2022-11-29T06:05:41.722Z,99.29
2022-11-29T06:09:49.636Z,99.68
2022-11-29T06:14:05.211Z,98.91
2022-11-29T06:18:28.275Z,99.03
2022-11-29T06:22:48.593Z,100.00
2022-11-29T06:27:17.433Z,100.00
2022-11-29T06:31:25.687Z,99.49
2022-11-29T06:35:45.501Z,100.00
2022-11-29T06:39:45.533Z,99.77
2022-11-29T06:43:45.805Z,100.00
2022-11-29T06:47:51.332Z,99.98
2022-11-29T06:52:07.675Z,99.82
2022-11-29T06:56:15.682Z,99.54
2022-11-29T07:00:21.311Z,99.63
2022-11-29T07:04:45.630Z,100.00
2022-11-29T07:08:47.207Z,100.00
2022-11-29T07:12:48.583Z,100.00
2022-11-29T07:16:59.905Z,100.00
2022-11-29T07:21:13.044Z,100.00
2022-11-29T07:25:26.653Z,100.00
2022-11-29T07:29:36.212Z,100.00
2022-11-29T07:33:46.266Z,100.00
2022-11-29T07:38:01.531Z,100.00
2022-11-29T07:42:10.657Z,100.00
2022-11-29T07:46:10.333Z,100.00
2022-11-29T07:50:10.955Z,100.00
2022-11-29T07:54:17.758Z,100.00
2022-11-29T07:58:19.337Z,100.00
2022-11-29T08:02:28.953Z,100.00
2022-11-29T08:06:32.014Z,100.00
2022-11-29T08:10:37.319Z,100.00
2022-11-29T08:14:36.781Z,100.00
2022-11-29T08:18:38.175Z,100.00
2022-11-29T08:22:37.553Z,100.00
2022-11-29T08:26:39.804Z,100.00
2022-11-29T08:30:40.100Z,100.00
2022-11-29T08:34:39.839Z,100.00
2022-11-29T08:38:40.002Z,100.00
2022-11-29T08:42:41.933Z,100.00
2022-11-29T08:46:58.071Z,100.00
2022-11-29T08:50:58.706Z,100.00
2022-11-29T08:55:02.998Z,100.00
2022-11-29T08:59:05.390Z,100.00
2022-11-29T09:03:22.286Z,100.00
2022-11-29T09:07:21.995Z,100.00
2022-11-29T09:11:24.092Z,100.00
2022-11-29T09:15:25.829Z,100.00
2022-11-29T09:19:25.378Z,99.63
2022-11-29T09:23:24.925Z,99.54
2022-11-29T09:27:24.409Z,100.00
2022-11-29T09:31:27.359Z,98.84
2022-11-29T09:35:26.972Z,100.00
2022-11-29T09:39:26.543Z,99.06
2022-11-29T09:43:28.942Z,99.77
2022-11-29T09:48:12.653Z,100.00
2022-11-29T09:52:24.014Z,99.25
2022-11-29T09:56:32.659Z,99.76
2022-11-29T10:00:34.568Z,100.00
2022-11-29T10:04:42.195Z,100.00
2022-11-29T10:08:47.694Z,100.00
2022-11-29T10:12:52.148Z,100.00
2022-11-29T10:16:58.318Z,100.00
2022-11-29T10:21:01.444Z,100.00
2022-11-29T10:25:04.396Z,100.00
2022-11-29T10:29:04.418Z,100.00
2022-11-29T10:33:04.342Z,100.00
2022-11-29T10:37:06.842Z,100.00
2022-11-29T10:41:10.679Z,100.00
2022-11-29T10:45:18.504Z,100.00
2022-11-29T10:49:21.432Z,100.00
2022-11-29T10:53:27.954Z,100.00
2022-11-29T10:57:27.802Z,100.00
2022-11-29T11:01:28.670Z,100.00
2022-11-29T11:05:29.061Z,100.00
2022-11-29T11:09:36.068Z,100.00
2022-11-29T11:13:37.262Z,100.00
2022-11-29T11:17:37.362Z,100.00
2022-11-29T11:21:40.955Z,100.00
2022-11-29T11:25:43.259Z,100.00
2022-11-29T11:29:46.050Z,100.00
2022-11-29T11:33:47.383Z,100.00
2022-11-29T11:37:58.413Z,100.00
2022-11-29T11:42:16.758Z,100.00
2022-11-29T11:46:18.099Z,100.00
2022-11-29T11:50:27.981Z,100.00
2022-11-29T11:54:28.436Z,100.00
2022-11-29T11:58:31.792Z,100.00
2022-11-29T12:02:40.297Z,100.00
2022-11-29T12:06:51.766Z,100.00
2022-11-29T12:10:55.660Z,100.00
2022-11-29T12:15:02.946Z,100.00
2022-11-29T12:19:09.165Z,100.00
2022-11-29T12:23:26.242Z,100.00
2022-11-29T12:27:25.788Z,100.00
2022-11-29T12:31:44.470Z,100.00
2022-11-29T12:36:00.980Z,100.00
2022-11-29T12:40:08.281Z,100.00
2022-11-29T12:44:22.469Z,100.00
2022-11-29T12:48:35.256Z,100.00
2022-11-29T12:52:43.677Z,100.00
2022-11-29T12:56:53.716Z,100.00
2022-11-29T13:01:05.328Z,100.00
2022-11-29T13:05:16.671Z,100.00
2022-11-29T13:09:47.219Z,100.00
2022-11-29T13:13:51.138Z,100.00
2022-11-29T13:18:01.637Z,100.00
2022-11-29T13:22:10.860Z,100.00
2022-11-29T13:26:13.497Z,100.00
2022-11-29T13:30:21.676Z,100.00
2022-11-29T13:34:26.689Z,100.00
2022-11-29T13:38:35.058Z,100.00
2022-11-29T13:42:44.895Z,100.00
2022-11-29T13:46:51.966Z,100.00
2022-11-29T13:50:51.863Z,100.00
2022-11-29T13:55:09.610Z,100.00
2022-11-29T13:59:16.971Z,100.00
2022-11-29T14:03:38.032Z,100.00
2022-11-29T14:08:42.521Z,100.00
2022-11-29T14:12:57.232Z,100.00
2022-11-29T14:17:01.739Z,100.00
2022-11-29T14:21:01.847Z,100.00
2022-11-29T14:25:50.518Z,100.00
2022-11-29T14:29:58.273Z,100.00
2022-11-29T14:34:07.902Z,100.00
2022-11-29T14:38:19.124Z,100.00
2022-11-29T14:42:21.248Z,100.00
2022-11-29T14:46:32.710Z,100.00
2022-11-29T14:50:36.772Z,100.00
2022-11-29T14:54:37.144Z,100.00
2022-11-29T14:58:37.092Z,100.00
2022-11-29T15:02:44.306Z,100.00
2022-11-29T15:06:50.141Z,100.00
2022-11-29T15:10:56.165Z,100.00
2022-11-29T15:15:09.956Z,100.00
2022-11-29T15:19:32.501Z,100.00
2022-11-29T15:23:43.479Z,100.00
2022-11-29T15:27:53.347Z,100.00
2022-11-29T15:31:58.714Z,100.00
2022-11-29T15:36:08.829Z,100.00
2022-11-29T15:40:17.143Z,100.00
2022-11-29T15:44:25.250Z,100.00
2022-11-29T15:48:27.091Z,100.00
2022-11-29T15:52:36.165Z,100.00
2022-11-29T15:56:41.154Z,100.00
2022-11-29T16:00:42.178Z,100.00
2022-11-29T16:04:47.055Z,100.00
2022-11-29T16:08:51.686Z,100.00
2022-11-29T16:12:57.433Z,100.00
2022-11-29T16:17:00.410Z,100.00
2022-11-29T16:21:05.595Z,100.00
2022-11-29T16:25:17.191Z,100.00
2022-11-29T16:29:24.555Z,100.00
2022-11-29T16:33:26.625Z,100.00
2022-11-29T16:37:29.218Z,100.00
2022-11-29T16:41:36.479Z,100.00
2022-11-29T16:45:38.108Z,100.00
2022-11-29T16:49:38.737Z,100.00
2022-11-29T16:53:41.956Z,100.00
2022-11-29T16:57:46.285Z,100.00
2022-11-29T17:01:47.533Z,100.00
2022-11-29T17:05:47.318Z,100.00
2022-11-29T17:09:46.596Z,100.00
2022-11-29T17:13:48.904Z,100.00
2022-11-29T17:17:51.695Z,100.00
2022-11-29T17:21:51.359Z,100.00
2022-11-29T17:25:58.591Z,100.00
2022-11-29T17:30:00.349Z,100.00
2022-11-29T17:34:01.473Z,100.00
2022-11-29T17:38:01.601Z,100.00
2022-11-29T17:42:01.483Z,100.00
2022-11-29T17:46:08.791Z,100.00
2022-11-29T17:50:10.707Z,100.00
2022-11-29T17:54:10.681Z,100.00
2022-11-29T17:58:10.756Z,100.00
2022-11-29T18:02:16.452Z,100.00
2022-11-29T18:06:17.679Z,100.00
2022-11-29T18:10:17.297Z,100.00
2022-11-29T18:14:17.466Z,100.00
2022-11-29T18:18:18.819Z,100.00
2022-11-29T18:22:19.529Z,100.00
2022-11-29T18:26:22.259Z,100.00
2022-11-29T18:30:22.148Z,100.00
2022-11-29T18:34:26.104Z,100.00
2022-11-29T18:38:25.313Z,100.00
2022-11-29T18:42:25.147Z,100.00
2022-11-29T18:46:25.652Z,100.00
2022-11-29T18:50:27.855Z,100.00
2022-11-29T18:54:28.793Z,100.00
2022-11-29T18:58:28.767Z,100.00
2022-11-29T19:02:30.033Z,100.00
2022-11-29T19:06:39.411Z,100.00
2022-11-29T19:10:40.326Z,100.00
2022-11-29T19:14:43.824Z,100.00
2022-11-29T19:18:47.136Z,100.00
2022-11-29T19:22:49.109Z,100.00
2022-11-29T19:26:50.235Z,100.00
2022-11-29T19:30:56.073Z,100.00
2022-11-29T19:34:56.390Z,100.00
2022-11-29T19:38:59.370Z,100.00
2022-11-29T19:42:59.693Z,100.00
2022-11-29T19:47:01.374Z,100.00
2022-11-29T19:51:02.069Z,100.00
2022-11-29T19:55:04.596Z,100.00
2022-11-29T19:59:04.407Z,100.00
2022-11-29T20:03:04.452Z,100.00
2022-11-29T20:07:04.482Z,100.00
2022-11-29T20:11:11.366Z,100.00
2022-11-29T20:15:11.601Z,100.00
2022-11-29T20:19:13.176Z,100.00
2022-11-29T20:23:13.737Z,100.00
2022-11-29T20:27:15.244Z,100.00
2022-11-29T20:31:17.752Z,100.00
2022-11-29T20:35:18.604Z,100.00
2022-11-29T20:39:33.010Z,100.00
2022-11-29T20:43:46.318Z,100.00
2022-11-29T20:47:55.232Z,100.00
2022-11-29T20:52:01.103Z,100.00
2022-11-29T20:56:01.208Z,100.00
2022-11-29T21:00:03.308Z,100.00
2022-11-29T21:04:03.146Z,100.00
2022-11-29T21:08:03.805Z,100.00
2022-11-29T21:12:03.834Z,100.00
2022-11-29T21:16:06.635Z,100.00
2022-11-29T21:20:07.857Z,100.00
2022-11-29T21:24:16.304Z,100.00
2022-11-29T21:28:18.380Z,100.00
2022-11-29T21:32:24.549Z,100.00
2022-11-29T21:36:24.782Z,100.00
2022-11-29T21:40:24.384Z,100.00
2022-11-29T21:44:23.624Z,100.00
2022-11-29T21:48:38.047Z,100.00
2022-11-29T21:52:37.691Z,100.00
2022-11-29T21:56:37.363Z,100.00
2022-11-29T22:00:37.724Z,100.00
2022-11-29T22:04:39.621Z,100.00
2022-11-29T22:08:40.899Z,100.00
2022-11-29T22:12:49.319Z,100.00
2022-11-29T22:16:53.672Z,100.00
2022-11-29T22:20:55.541Z,100.00
2022-11-29T22:24:55.113Z,100.00
2022-11-29T22:28:54.364Z,100.00
2022-11-29T22:32:54.084Z,100.00
2022-11-29T22:36:55.823Z,100.00
2022-11-29T22:40:55.473Z,100.00
2022-11-29T22:44:54.866Z,100.00
2022-11-29T22:48:56.196Z,100.00
2022-11-29T22:52:57.924Z,100.00
2022-11-29T22:56:57.534Z,100.00
2022-11-29T23:01:03.421Z,100.00
2022-11-29T23:05:03.409Z,100.00
2022-11-29T23:09:10.369Z,100.00
2022-11-29T23:13:09.990Z,100.00
2022-11-29T23:17:09.298Z,100.00
2022-11-29T23:21:10.395Z,100.00
2022-11-29T23:25:12.363Z,100.00
2022-11-29T23:29:14.150Z,100.00
2022-11-29T23:33:13.719Z,100.00
2022-11-29T23:37:13.425Z,100.00
2022-11-29T23:41:15.624Z,100.00
2022-11-29T23:45:15.327Z,100.00
2022-11-29T23:49:14.946Z,100.00
2022-11-29T23:53:14.651Z,100.00
2022-11-29T23:57:16.347Z,100.00
